createdAt,value
2023-07-09T00:01:28.383Z,25.20
2023-07-09T00:03:55.367Z,25.20
2023-07-09T00:06:22.854Z,25.10
2023-07-09T00:08:50.692Z,25.10
2023-07-09T00:11:18.256Z,25.00
2023-07-09T00:13:45.778Z,25.00
2023-07-09T00:16:22.554Z,25.00
2023-07-09T00:18:50.175Z,24.90
2023-07-09T00:21:19.546Z,24.90
2023-07-09T00:23:47.897Z,24.90
2023-07-09T00:26:15.892Z,24.80
2023-07-09T00:28:44.515Z,24.80
2023-07-09T00:31:16.651Z,24.80
2023-07-09T00:33:47.560Z,24.80
2023-07-09T00:36:27.601Z,24.80
2023-07-09T00:38:54.517Z,24.70
2023-07-09T00:41:24.304Z,24.70
2023-07-09T00:43:53.058Z,24.70
2023-07-09T00:46:27.363Z,24.60
2023-07-09T00:49:01.284Z,24.60
2023-07-09T00:51:30.113Z,24.60
2023-07-09T00:54:02.268Z,24.60
2023-07-09T00:56:33.493Z,24.50
2023-07-09T00:59:05.795Z,24.50
2023-07-09T01:01:33.911Z,24.40
2023-07-09T01:04:04.520Z,24.40
2023-07-09T01:06:48.882Z,24.40
2023-07-09T01:09:16.743Z,24.30
2023-07-09T01:11:43.634Z,24.30
2023-07-09T01:14:14.582Z,24.20
2023-07-09T01:16:58.141Z,24.20
2023-07-09T01:19:29.478Z,24.20
2023-07-09T01:22:01.387Z,24.10
2023-07-09T01:25:00.792Z,24.10
2023-07-09T01:27:34.602Z,24.10
2023-07-09T01:30:05.287Z,24.00
2023-07-09T01:32:32.539Z,24.00
2023-07-09T01:35:05.878Z,24.00
2023-07-09T01:37:35.760Z,24.00
2023-07-09T01:40:10.836Z,23.90
2023-07-09T01:42:47.904Z,23.90
2023-07-09T01:45:16.533Z,23.90
2023-07-09T01:47:45.020Z,23.90
2023-07-09T01:50:12.262Z,23.80
2023-07-09T01:52:43.160Z,23.80
2023-07-09T01:55:12.122Z,23.80
2023-07-09T01:57:42.134Z,23.70
2023-07-09T02:00:12.560Z,23.70
2023-07-09T02:02:46.875Z,23.70
2023-07-09T02:05:16.681Z,23.70
2023-07-09T02:07:43.697Z,23.70
2023-07-09T02:10:11.977Z,23.70
2023-07-09T02:12:39.144Z,23.60
2023-07-09T02:15:07.071Z,23.60
2023-07-09T02:17:33.874Z,23.60
2023-07-09T02:20:00.764Z,23.50
2023-07-09T02:22:27.792Z,23.50
2023-07-09T02:24:54.719Z,23.40
2023-07-09T02:27:22.953Z,23.40
2023-07-09T02:29:50.178Z,23.40
2023-07-09T02:32:27.847Z,23.40
2023-07-09T02:34:56.204Z,23.30
2023-07-09T02:37:27.239Z,23.30
2023-07-09T02:39:54.894Z,23.30
2023-07-09T02:42:24.011Z,23.30
2023-07-09T02:44:51.904Z,23.30
2023-07-09T02:47:19.821Z,23.20
2023-07-09T02:49:47.353Z,23.20
2023-07-09T02:52:14.757Z,23.20
2023-07-09T02:54:41.896Z,23.10
2023-07-09T02:57:10.157Z,23.10
2023-07-09T02:59:37.127Z,23.10
2023-07-09T03:02:04.708Z,23.10
2023-07-09T03:04:32.505Z,23.00
2023-07-09T03:07:01.152Z,23.00
2023-07-09T03:09:29.065Z,23.00
2023-07-09T03:11:56.918Z,23.00
2023-07-09T03:14:24.105Z,22.90
2023-07-09T03:16:51.271Z,22.90
2023-07-09T03:19:18.608Z,22.90
2023-07-09T03:21:45.539Z,22.90
2023-07-09T03:24:12.501Z,22.80
2023-07-09T03:26:39.437Z,22.80
2023-07-09T03:29:06.413Z,22.80
2023-07-09T03:31:36.287Z,22.80
2023-07-09T03:34:03.764Z,22.80
2023-07-09T03:36:31.142Z,22.80
2023-07-09T03:38:58.191Z,22.80
2023-07-09T03:41:25.779Z,22.70
2023-07-09T03:43:54.630Z,22.70
2023-07-09T03:46:21.864Z,22.70
2023-07-09T03:48:50.515Z,22.70
2023-07-09T03:51:18.540Z,22.70
2023-07-09T03:53:45.685Z,22.70
2023-07-09T03:56:12.633Z,22.70
2023-07-09T03:58:39.851Z,22.70
2023-07-09T04:01:07.068Z,22.70
2023-07-09T04:03:34.172Z,22.70
2023-07-09T04:06:01.427Z,22.70
2023-07-09T04:08:28.650Z,22.70
2023-07-09T04:10:59.684Z,22.70
2023-07-09T04:13:28.349Z,22.80
2023-07-09T04:15:56.555Z,22.80
2023-07-09T04:18:23.645Z,22.80
2023-07-09T04:20:51.614Z,22.80
2023-07-09T04:23:19.785Z,22.80
2023-07-09T04:25:46.918Z,22.80
2023-07-09T04:28:14.402Z,22.90
2023-07-09T04:30:49.096Z,22.90
2023-07-09T04:33:18.627Z,22.90
2023-07-09T04:35:47.128Z,22.90
2023-07-09T04:38:14.764Z,23.00
2023-07-09T04:40:42.116Z,23.00
2023-07-09T04:43:09.222Z,23.00
2023-07-09T04:45:36.155Z,23.00
2023-07-09T04:48:03.661Z,23.00
2023-07-09T04:50:30.562Z,23.10
2023-07-09T04:52:57.545Z,23.10
2023-07-09T04:55:24.444Z,23.10
2023-07-09T04:57:51.547Z,23.20
2023-07-09T05:00:18.740Z,23.30
2023-07-09T05:02:45.934Z,23.30
2023-07-09T05:05:13.094Z,23.30
2023-07-09T05:07:40.676Z,23.40
2023-07-09T05:10:08.088Z,23.50
2023-07-09T05:12:35.039Z,23.50
2023-07-09T05:15:02.089Z,23.60
2023-07-09T05:17:28.994Z,23.70
2023-07-09T05:19:55.977Z,23.80
2023-07-09T05:22:22.867Z,23.90
2023-07-09T05:24:49.912Z,24.00
2023-07-09T05:27:16.758Z,24.10
2023-07-09T05:29:43.668Z,24.20
2023-07-09T05:32:10.497Z,24.30
2023-07-09T05:34:37.298Z,24.40
2023-07-09T05:37:04.462Z,24.50
2023-07-09T05:39:31.389Z,24.60
2023-07-09T05:41:58.257Z,24.70
2023-07-09T05:44:25.057Z,24.80
2023-07-09T05:46:52.203Z,24.80
2023-07-09T05:49:19.392Z,24.90
2023-07-09T05:51:46.229Z,25.00
2023-07-09T05:54:13.334Z,25.10
2023-07-09T05:56:40.413Z,25.20
2023-07-09T05:59:07.354Z,25.40
2023-07-09T06:01:34.230Z,25.40
2023-07-09T06:04:01.428Z,25.60
2023-07-09T06:06:28.605Z,25.70
2023-07-09T06:08:55.552Z,25.80
2023-07-09T06:11:22.900Z,25.90
2023-07-09T06:13:50.088Z,26.00
2023-07-09T06:16:18.577Z,26.10
2023-07-09T06:18:45.644Z,26.20
2023-07-09T06:21:13.881Z,26.30
2023-07-09T06:23:40.810Z,26.30
2023-07-09T06:26:07.815Z,26.40
2023-07-09T06:28:34.982Z,26.40
2023-07-09T06:31:02.103Z,26.50
2023-07-09T06:33:30.002Z,26.70
2023-07-09T06:36:01.995Z,26.80
2023-07-09T06:38:30.137Z,26.90
2023-07-09T06:40:58.164Z,27.00
2023-07-09T06:43:25.139Z,27.20
2023-07-09T06:45:57.313Z,27.30
2023-07-09T06:48:25.415Z,27.40
2023-07-09T06:50:54.441Z,27.60
2023-07-09T06:53:21.875Z,27.70
2023-07-09T06:55:50.258Z,27.80
2023-07-09T06:58:20.345Z,27.90
2023-07-09T07:00:49.953Z,28.00
2023-07-09T07:03:17.454Z,28.10
2023-07-09T07:05:50.373Z,28.20
2023-07-09T07:08:20.481Z,28.30
2023-07-09T07:10:49.589Z,28.50
2023-07-09T07:13:16.893Z,28.60
2023-07-09T07:15:49.626Z,28.60
2023-07-09T07:18:16.542Z,28.70
2023-07-09T07:20:44.352Z,28.70
2023-07-09T07:23:12.063Z,28.70
2023-07-09T07:25:39.051Z,28.70
2023-07-09T07:28:05.915Z,28.70
2023-07-09T07:30:32.875Z,28.80
2023-07-09T07:33:00.148Z,28.90
2023-07-09T07:35:27.117Z,29.00
2023-07-09T07:37:54.144Z,29.10
2023-07-09T07:40:21.046Z,29.20
2023-07-09T07:42:47.994Z,29.30
2023-07-09T07:45:14.887Z,29.40
2023-07-09T07:47:42.203Z,29.40
2023-07-09T07:50:09.749Z,29.50
2023-07-09T07:52:38.415Z,29.50
2023-07-09T07:55:11.741Z,29.60
2023-07-09T07:57:41.566Z,29.70
2023-07-09T08:00:10.416Z,29.80
2023-07-09T08:02:40.063Z,29.80
2023-07-09T08:05:07.359Z,30.00
2023-07-09T08:07:34.542Z,30.10
2023-07-09T08:10:01.384Z,30.20
2023-07-09T08:12:28.197Z,30.30
2023-07-09T08:14:55.134Z,30.40
2023-07-09T08:17:21.987Z,30.50
2023-07-09T08:19:56.857Z,30.60
2023-07-09T08:22:24.024Z,30.70
2023-07-09T08:24:51.882Z,30.70
2023-07-09T08:27:20.814Z,30.80
2023-07-09T08:29:48.319Z,30.80
2023-07-09T08:32:15.879Z,30.90
2023-07-09T08:35:03.199Z,31.00
2023-07-09T08:37:30.359Z,31.10
2023-07-09T08:39:57.229Z,31.30
2023-07-09T08:42:46.849Z,31.40
2023-07-09T08:45:41.181Z,31.60
2023-07-09T08:48:16.623Z,31.70
2023-07-09T08:50:48.083Z,31.90
2023-07-09T08:53:51.445Z,32.10
2023-07-09T08:56:19.685Z,32.60
2023-07-09T08:58:48.620Z,33.20
2023-07-09T09:01:24.251Z,33.80
2023-07-09T09:04:00.302Z,34.30
2023-07-09T09:06:29.327Z,34.70
2023-07-09T09:09:04.224Z,35.00
2023-07-09T09:11:34.457Z,35.30
2023-07-09T09:14:07.301Z,35.40
2023-07-09T09:16:39.574Z,35.70
2023-07-09T09:19:27.836Z,36.10
2023-07-09T09:22:06.075Z,36.60
2023-07-09T09:24:56.455Z,37.00
2023-07-09T09:27:23.425Z,37.50
2023-07-09T09:29:50.366Z,37.70
2023-07-09T09:32:27.596Z,37.80
2023-07-09T09:34:55.843Z,37.50
2023-07-09T09:37:31.511Z,37.30
2023-07-09T09:40:13.644Z,37.10
2023-07-09T09:42:44.092Z,37.10
2023-07-09T09:45:17.410Z,37.30
2023-07-09T09:47:46.345Z,37.60
2023-07-09T09:50:22.460Z,38.20
2023-07-09T09:52:50.541Z,38.70
2023-07-09T09:55:20.975Z,39.00
2023-07-09T09:57:53.573Z,39.00
2023-07-09T10:00:26.337Z,38.90
2023-07-09T10:03:02.641Z,38.80
2023-07-09T10:05:52.943Z,38.90
2023-07-09T10:08:28.986Z,39.20
2023-07-09T10:11:09.309Z,39.50
2023-07-09T10:13:42.808Z,39.90
2023-07-09T10:16:24.702Z,40.40
2023-07-09T10:19:14.616Z,40.60
2023-07-09T10:21:52.801Z,40.40
2023-07-09T10:24:40.675Z,40.00
2023-07-09T10:27:32.576Z,39.50
2023-07-09T10:30:22.279Z,39.10
2023-07-09T10:33:10.705Z,38.70
2023-07-09T10:35:45.850Z,37.90
2023-07-09T10:38:21.349Z,37.50
2023-07-09T10:40:53.197Z,37.30
2023-07-09T10:43:39.730Z,37.70
2023-07-09T10:46:16.815Z,38.20
2023-07-09T10:48:47.580Z,38.00
2023-07-09T10:51:27.147Z,37.70
2023-07-09T10:54:02.882Z,37.90
2023-07-09T10:56:37.088Z,38.40
2023-07-09T10:59:09.590Z,38.80
2023-07-09T11:01:41.612Z,39.00
2023-07-09T11:04:38.838Z,39.10
2023-07-09T11:07:12.607Z,39.40
2023-07-09T11:09:50.413Z,39.80
2023-07-09T11:12:26.247Z,40.10
2023-07-09T11:15:04.468Z,40.20
2023-07-09T11:17:32.140Z,40.30
2023-07-09T11:20:09.957Z,40.30
2023-07-09T11:22:40.957Z,40.30
2023-07-09T11:25:12.801Z,40.30
2023-07-09T11:28:05.381Z,40.20
2023-07-09T11:30:32.407Z,40.10
2023-07-09T11:33:22.187Z,40.10
2023-07-09T11:35:52.902Z,40.10
2023-07-09T11:38:25.091Z,40.20
2023-07-09T11:40:57.067Z,40.00
2023-07-09T11:43:30.133Z,39.60
2023-07-09T11:46:02.515Z,39.10
2023-07-09T11:48:32.640Z,38.80
2023-07-09T11:51:10.165Z,38.40
2023-07-09T11:53:41.390Z,38.00
2023-07-09T11:56:10.295Z,37.60
2023-07-09T11:58:37.384Z,37.30
2023-07-09T12:01:15.181Z,37.00
2023-07-09T12:03:46.490Z,36.80
2023-07-09T12:06:23.992Z,36.60
2023-07-09T12:08:52.507Z,36.30
2023-07-09T12:11:44.844Z,36.00
2023-07-09T12:14:16.387Z,35.70
2023-07-09T12:16:46.700Z,35.60
2023-07-09T12:19:15.687Z,35.80
2023-07-09T12:21:45.579Z,36.40
2023-07-09T12:24:23.566Z,36.90
2023-07-09T12:26:55.169Z,37.30
2023-07-09T12:29:26.652Z,37.40
2023-07-09T12:31:53.548Z,37.20
2023-07-09T12:34:20.486Z,37.20
2023-07-09T12:36:51.029Z,37.00
2023-07-09T12:39:26.857Z,36.70
2023-07-09T12:42:01.387Z,36.70
2023-07-09T12:44:32.694Z,36.70
2023-07-09T12:46:59.732Z,37.00
2023-07-09T12:49:37.761Z,37.30
2023-07-09T12:52:13.066Z,37.60
2023-07-09T12:54:39.972Z,37.80
2023-07-09T12:57:17.920Z,37.80
2023-07-09T12:59:47.127Z,37.90
2023-07-09T13:02:26.290Z,37.90
2023-07-09T13:05:07.657Z,37.70
2023-07-09T13:07:42.803Z,37.60
2023-07-09T13:10:19.731Z,37.50
2023-07-09T13:12:50.233Z,37.40
2023-07-09T13:15:35.986Z,37.20
2023-07-09T13:18:05.554Z,36.90
2023-07-09T13:20:36.066Z,36.40
2023-07-09T13:23:10.914Z,35.90
2023-07-09T13:25:47.785Z,35.40
2023-07-09T13:28:23.229Z,34.70
2023-07-09T13:30:52.780Z,34.00
2023-07-09T13:33:19.812Z,33.40
2023-07-09T13:35:47.981Z,33.00
2023-07-09T13:38:19.927Z,32.40
2023-07-09T13:40:50.697Z,31.80
2023-07-09T13:43:24.297Z,31.40
2023-07-09T13:45:51.285Z,31.10
2023-07-09T13:48:20.542Z,30.70
2023-07-09T13:50:50.800Z,30.40
2023-07-09T13:53:21.506Z,30.00
2023-07-09T13:55:50.511Z,29.60
2023-07-09T13:58:19.380Z,29.30
2023-07-09T14:00:48.640Z,29.10
2023-07-09T14:03:25.539Z,29.00
2023-07-09T14:05:53.819Z,28.80
2023-07-09T14:08:22.793Z,28.60
2023-07-09T14:10:53.520Z,28.40
2023-07-09T14:13:24.547Z,28.30
2023-07-09T14:15:51.396Z,28.20
2023-07-09T14:18:21.985Z,28.10
2023-07-09T14:20:50.086Z,28.00
2023-07-09T14:23:19.192Z,27.80
2023-07-09T14:25:46.414Z,27.70
2023-07-09T14:28:18.780Z,27.50
2023-07-09T14:30:47.411Z,27.30
2023-07-09T14:33:22.387Z,27.20
2023-07-09T14:35:50.769Z,27.10
2023-07-09T14:38:21.850Z,26.60
2023-07-09T14:40:50.645Z,25.50
2023-07-09T14:43:17.652Z,24.40
2023-07-09T14:45:44.740Z,23.50
2023-07-09T14:48:17.355Z,23.00
2023-07-09T14:50:45.089Z,22.60
2023-07-09T14:53:22.979Z,22.20
2023-07-09T14:55:50.064Z,22.10
2023-07-09T14:58:22.593Z,22.30
2023-07-09T15:00:50.043Z,22.60
2023-07-09T15:03:23.623Z,23.00
2023-07-09T15:05:51.111Z,23.30
2023-07-09T15:08:20.867Z,23.60
2023-07-09T15:10:49.060Z,23.80
2023-07-09T15:13:35.291Z,24.00
2023-07-09T15:16:03.925Z,24.00
2023-07-09T15:18:31.143Z,24.10
2023-07-09T15:20:59.654Z,24.10
2023-07-09T15:23:28.290Z,24.20
2023-07-09T15:25:55.735Z,24.30
2023-07-09T15:28:23.084Z,24.40
2023-07-09T15:30:50.043Z,24.40
2023-07-09T15:33:20.437Z,24.40
2023-07-09T15:35:51.523Z,24.40
2023-07-09T15:38:32.947Z,24.50
2023-07-09T15:40:59.872Z,24.50
2023-07-09T15:43:27.206Z,24.60
2023-07-09T15:45:58.451Z,24.60
2023-07-09T15:48:36.863Z,24.60
2023-07-09T15:51:05.822Z,24.70
2023-07-09T15:53:33.598Z,24.80
2023-07-09T15:56:06.621Z,24.90
2023-07-09T15:58:40.747Z,24.90
2023-07-09T16:01:12.632Z,25.00
2023-07-09T16:03:40.108Z,25.10
2023-07-09T16:06:06.993Z,25.20
2023-07-09T16:08:33.851Z,25.30
2023-07-09T16:11:01.296Z,25.30
2023-07-09T16:13:28.931Z,25.40
2023-07-09T16:15:55.992Z,25.50
2023-07-09T16:18:22.990Z,25.60
2023-07-09T16:20:50.743Z,25.70
2023-07-09T16:23:20.673Z,25.70
2023-07-09T16:25:51.102Z,25.80
2023-07-09T16:28:20.666Z,25.90
2023-07-09T16:30:49.573Z,25.90
2023-07-09T16:33:16.485Z,25.90
2023-07-09T16:35:43.723Z,25.90
2023-07-09T16:38:14.256Z,25.80
2023-07-09T16:40:41.316Z,25.70
2023-07-09T16:43:22.145Z,25.60
2023-07-09T16:45:49.474Z,25.60
2023-07-09T16:48:25.664Z,25.60
2023-07-09T16:50:55.157Z,25.60
2023-07-09T16:53:23.246Z,25.60
2023-07-09T16:55:51.131Z,25.60
2023-07-09T16:58:36.405Z,25.60
2023-07-09T17:01:04.237Z,25.60
2023-07-09T17:03:31.604Z,25.60
2023-07-09T17:05:58.705Z,25.60
2023-07-09T17:08:27.828Z,25.60
2023-07-09T17:10:54.957Z,25.40
2023-07-09T17:13:26.765Z,25.20
2023-07-09T17:15:54.116Z,25.10
2023-07-09T17:18:31.125Z,25.00
2023-07-09T17:21:01.374Z,24.90
2023-07-09T17:23:30.977Z,24.70
2023-07-09T17:26:00.448Z,24.60
2023-07-09T17:28:30.104Z,24.50
2023-07-09T17:30:58.024Z,24.50
2023-07-09T17:33:25.765Z,24.40
2023-07-09T17:35:53.758Z,24.30
2023-07-09T17:38:40.231Z,24.30
2023-07-09T17:41:07.315Z,24.30
2023-07-09T17:43:34.227Z,24.20
2023-07-09T17:46:01.235Z,24.20
2023-07-09T17:48:31.303Z,24.10
2023-07-09T17:50:58.789Z,24.10
2023-07-09T17:53:28.411Z,24.10
2023-07-09T17:55:55.800Z,24.10
2023-07-09T17:58:28.606Z,24.20
2023-07-09T18:01:04.000Z,24.10
2023-07-09T18:03:31.180Z,24.10
2023-07-09T18:05:58.294Z,24.10
2023-07-09T18:08:25.301Z,24.10
2023-07-09T18:10:53.209Z,24.20
2023-07-09T18:13:27.629Z,24.20
2023-07-09T18:15:55.661Z,24.20
2023-07-09T18:18:23.401Z,24.20
2023-07-09T18:20:50.555Z,24.20
2023-07-09T18:23:17.541Z,24.20
2023-07-09T18:25:45.965Z,24.20
2023-07-09T18:28:28.099Z,24.20
2023-07-09T18:31:07.455Z,24.10
2023-07-09T18:33:41.973Z,24.00
2023-07-09T18:36:09.135Z,24.00
2023-07-09T18:38:35.958Z,23.90
2023-07-09T18:41:14.199Z,23.90
2023-07-09T18:43:41.063Z,23.90
2023-07-09T18:46:11.259Z,23.90
2023-07-09T18:48:38.152Z,23.80
2023-07-09T18:51:08.909Z,23.80
2023-07-09T18:53:36.133Z,23.80
2023-07-09T18:56:03.672Z,23.80
2023-07-09T18:58:31.019Z,23.70
2023-07-09T19:01:00.045Z,23.70
2023-07-09T19:03:36.644Z,23.60
2023-07-09T19:06:04.465Z,23.60
2023-07-09T19:08:33.579Z,23.50
2023-07-09T19:11:03.087Z,23.50
2023-07-09T19:13:30.709Z,23.50
2023-07-09T19:16:01.727Z,23.50
2023-07-09T19:18:34.348Z,23.50
2023-07-09T19:21:01.439Z,23.40
2023-07-09T19:23:28.624Z,23.50
2023-07-09T19:25:55.614Z,23.40
2023-07-09T19:28:23.559Z,23.50
2023-07-09T19:30:52.809Z,23.40
2023-07-09T19:33:41.084Z,23.40
2023-07-09T19:36:23.728Z,23.40
2023-07-09T19:38:52.627Z,23.30
2023-07-09T19:41:21.062Z,23.20
2023-07-09T19:43:47.966Z,23.20
2023-07-09T19:46:20.228Z,23.20
2023-07-09T19:48:47.213Z,23.20
2023-07-09T19:51:14.510Z,23.20
2023-07-09T19:53:41.367Z,23.20
2023-07-09T19:56:08.302Z,23.10
2023-07-09T19:58:35.240Z,23.00
2023-07-09T20:01:02.607Z,22.90
2023-07-09T20:03:32.936Z,22.80
2023-07-09T20:06:00.591Z,22.80
2023-07-09T20:08:27.667Z,22.80
2023-07-09T20:10:59.200Z,22.70
2023-07-09T20:13:31.503Z,22.60
2023-07-09T20:15:58.872Z,22.60
2023-07-09T20:18:26.834Z,22.60
2023-07-09T20:21:03.802Z,22.60
2023-07-09T20:23:32.040Z,22.50
2023-07-09T20:25:59.644Z,22.50
2023-07-09T20:28:28.783Z,22.50
2023-07-09T20:30:56.682Z,22.50
2023-07-09T20:33:24.849Z,22.60
2023-07-09T20:35:52.641Z,22.50
2023-07-09T20:38:24.615Z,22.50
2023-07-09T20:40:52.096Z,22.40
2023-07-09T20:43:27.737Z,22.30
2023-07-09T20:45:55.448Z,22.20
2023-07-09T20:48:24.582Z,22.20
2023-07-09T20:50:52.507Z,22.10
2023-07-09T20:53:20.448Z,22.00
2023-07-09T20:55:48.550Z,22.00
2023-07-09T20:58:17.568Z,22.00
2023-07-09T21:00:45.507Z,21.90
2023-07-09T21:03:16.390Z,21.90
2023-07-09T21:05:43.477Z,21.80
2023-07-09T21:08:17.191Z,21.70
2023-07-09T21:10:46.041Z,21.60
2023-07-09T21:13:15.477Z,21.50
2023-07-09T21:15:43.431Z,21.40
2023-07-09T21:18:16.646Z,21.30
2023-07-09T21:20:44.188Z,21.20
2023-07-09T21:23:19.345Z,21.10
2023-07-09T21:25:47.082Z,21.10
2023-07-09T21:28:15.032Z,21.00
2023-07-09T21:30:42.457Z,21.00
2023-07-09T21:33:18.122Z,21.00
2023-07-09T21:35:46.704Z,21.00
2023-07-09T21:38:20.205Z,21.00
2023-07-09T21:40:47.793Z,21.00
2023-07-09T21:43:14.678Z,21.00
2023-07-09T21:45:43.725Z,21.10
2023-07-09T21:48:27.089Z,21.10
2023-07-09T21:50:55.278Z,21.10
2023-07-09T21:53:45.894Z,21.10
2023-07-09T21:56:15.165Z,21.10
2023-07-09T21:58:42.229Z,21.00
2023-07-09T22:01:19.994Z,20.90
2023-07-09T22:03:47.336Z,20.80
2023-07-09T22:06:15.008Z,20.70
2023-07-09T22:08:46.876Z,20.60
2023-07-09T22:11:28.065Z,20.60
2023-07-09T22:13:56.885Z,20.60
2023-07-09T22:16:26.469Z,20.70
2023-07-09T22:18:53.444Z,20.70
2023-07-09T22:21:20.330Z,20.80
2023-07-09T22:23:47.241Z,20.70
2023-07-09T22:26:14.188Z,20.60
2023-07-09T22:28:41.752Z,20.60
2023-07-09T22:31:11.255Z,20.50
2023-07-09T22:33:38.236Z,20.50
2023-07-09T22:36:05.670Z,20.50
2023-07-09T22:38:32.990Z,20.50
2023-07-09T22:41:00.651Z,20.60
2023-07-09T22:43:27.492Z,20.60
2023-07-09T22:45:55.721Z,20.60
2023-07-09T22:48:23.169Z,20.60
2023-07-09T22:50:55.475Z,20.60
2023-07-09T22:53:23.938Z,20.60
2023-07-09T22:55:52.535Z,20.60
2023-07-09T22:58:21.392Z,20.60
2023-07-09T23:01:01.847Z,20.60
2023-07-09T23:03:37.992Z,20.60
2023-07-09T23:06:19.860Z,20.60
2023-07-09T23:08:47.782Z,20.60
2023-07-09T23:11:21.564Z,20.50
2023-07-09T23:13:48.861Z,20.50
2023-07-09T23:16:18.014Z,20.50
2023-07-09T23:18:46.136Z,20.40
2023-07-09T23:21:21.571Z,20.40
2023-07-09T23:23:49.622Z,20.30
2023-07-09T23:26:17.596Z,20.30
2023-07-09T23:28:44.440Z,20.20
2023-07-09T23:31:31.151Z,20.20
2023-07-09T23:34:00.029Z,20.20
2023-07-09T23:36:27.841Z,20.10
2023-07-09T23:38:55.128Z,20.10
2023-07-09T23:41:27.808Z,20.10
2023-07-09T23:43:56.957Z,20.10
2023-07-09T23:46:29.309Z,20.10
2023-07-09T23:49:08.646Z,20.10
2023-07-09T23:51:36.819Z,20.10
2023-07-09T23:54:03.711Z,20.10
2023-07-09T23:56:34.846Z,20.10
2023-07-09T23:59:03.233Z,20.10
